createdAt,value
2023-05-14T00:00:43.638Z,100.00
2023-05-14T00:03:14.020Z,100.00
2023-05-14T00:05:44.526Z,100.00
2023-05-14T00:08:14.939Z,100.00
2023-05-14T00:10:45.108Z,100.00
2023-05-14T00:13:15.299Z,100.00
2023-05-14T00:15:45.688Z,100.00
2023-05-14T00:18:16.114Z,100.00
2023-05-14T00:20:46.406Z,100.00
2023-05-14T00:23:17.740Z,100.00
2023-05-14T00:25:47.967Z,100.00
2023-05-14T00:28:18.454Z,100.00
2023-05-14T00:30:48.984Z,100.00
2023-05-14T00:33:19.691Z,100.00
2023-05-14T00:35:49.882Z,100.00
2023-05-14T00:38:20.210Z,100.00
2023-05-14T00:40:53.277Z,100.00
2023-05-14T00:43:24.180Z,100.00
2023-05-14T00:45:56.269Z,100.00
2023-05-14T00:48:26.970Z,100.00
2023-05-14T00:50:57.776Z,100.00
2023-05-14T00:53:29.371Z,100.00
2023-05-14T00:55:59.849Z,100.00
2023-05-14T00:58:29.949Z,100.00
2023-05-14T01:01:00.824Z,100.00
2023-05-14T01:03:33.651Z,100.00
2023-05-14T01:07:01.668Z,100.00
2023-05-14T01:09:38.218Z,100.00
2023-05-14T01:12:35.820Z,100.00
2023-05-14T01:15:29.014Z,100.00
2023-05-14T01:18:08.920Z,100.00
2023-05-14T01:20:39.253Z,100.00
2023-05-14T01:23:08.984Z,100.00
2023-05-14T01:25:39.048Z,100.00
2023-05-14T01:28:35.957Z,100.00
2023-05-14T01:31:28.114Z,100.00
2023-05-14T01:34:01.052Z,100.00
2023-05-14T01:36:33.197Z,100.00
2023-05-14T01:39:03.997Z,100.00
2023-05-14T01:41:34.645Z,100.00
2023-05-14T01:44:05.765Z,100.00
2023-05-14T01:46:36.310Z,100.00
2023-05-14T01:49:06.549Z,100.00
2023-05-14T01:51:37.969Z,100.00
2023-05-14T01:54:08.203Z,100.00
2023-05-14T01:56:38.417Z,100.00
2023-05-14T01:59:08.584Z,100.00
2023-05-14T02:01:38.905Z,100.00
2023-05-14T02:04:09.156Z,100.00
2023-05-14T02:06:39.533Z,100.00
2023-05-14T02:09:09.802Z,100.00
2023-05-14T02:11:40.050Z,100.00
2023-05-14T02:14:10.215Z,100.00
2023-05-14T02:16:40.809Z,100.00
2023-05-14T02:19:11.378Z,100.00
2023-05-14T02:21:41.591Z,100.00
2023-05-14T02:24:12.167Z,100.00
2023-05-14T02:26:42.598Z,100.00
2023-05-14T02:29:12.795Z,100.00
2023-05-14T02:31:43.864Z,100.00
2023-05-14T02:34:14.176Z,100.00
2023-05-14T02:36:44.388Z,100.00
2023-05-14T02:39:14.569Z,100.00
2023-05-14T02:41:44.796Z,100.00
2023-05-14T02:44:14.932Z,100.00
2023-05-14T02:46:45.243Z,100.00
2023-05-14T02:49:15.449Z,100.00
2023-05-14T02:51:45.652Z,100.00
2023-05-14T02:54:16.916Z,100.00
2023-05-14T02:56:47.407Z,100.00
2023-05-14T02:59:17.701Z,100.00
2023-05-14T03:01:48.201Z,100.00
2023-05-14T03:04:18.968Z,100.00
2023-05-14T03:06:49.233Z,100.00
2023-05-14T03:09:20.137Z,100.00
2023-05-14T03:11:51.127Z,100.00
2023-05-14T03:14:21.299Z,100.00
2023-05-14T03:16:51.571Z,100.00
2023-05-14T03:19:21.791Z,100.00
2023-05-14T03:21:51.977Z,100.00
2023-05-14T03:24:22.088Z,100.00
2023-05-14T03:26:52.280Z,100.00
2023-05-14T03:29:22.484Z,100.00
2023-05-14T03:31:53.186Z,100.00
2023-05-14T03:34:23.754Z,100.00
2023-05-14T03:36:51.753Z,100.00
2023-05-14T03:39:20.244Z,100.00
2023-05-14T03:41:49.099Z,100.00
2023-05-14T03:44:16.968Z,100.00
2023-05-14T03:46:45.562Z,100.00
2023-05-14T03:49:13.880Z,100.00
2023-05-14T03:51:42.401Z,100.00
2023-05-14T03:54:12.541Z,100.00
2023-05-14T03:56:42.706Z,100.00
2023-05-14T03:59:12.815Z,100.00
2023-05-14T04:01:41.353Z,100.00
2023-05-14T04:04:10.183Z,100.00
2023-05-14T04:06:39.189Z,100.00
2023-05-14T04:09:07.222Z,100.00
2023-05-14T04:11:37.910Z,100.00
2023-05-14T04:14:06.333Z,100.00
2023-05-14T04:16:36.569Z,100.00
2023-05-14T04:19:06.838Z,100.00
2023-05-14T04:21:36.996Z,100.00
2023-05-14T04:24:07.923Z,100.00
2023-05-14T04:26:38.233Z,100.00
2023-05-14T04:29:08.503Z,100.00
2023-05-14T04:31:37.174Z,100.00
2023-05-14T04:34:05.464Z,100.00
2023-05-14T04:36:33.911Z,100.00
2023-05-14T04:39:02.547Z,100.00
2023-05-14T04:41:30.944Z,100.00
2023-05-14T04:44:04.450Z,100.00
2023-05-14T04:46:34.690Z,100.00
2023-05-14T04:49:04.948Z,100.00
2023-05-14T04:51:35.093Z,100.00
2023-05-14T04:54:05.490Z,100.00
2023-05-14T04:56:35.737Z,100.00
2023-05-14T04:59:06.646Z,100.00
2023-05-14T05:01:36.904Z,100.00
2023-05-14T05:04:07.273Z,100.00
2023-05-14T05:06:37.672Z,100.00
2023-05-14T05:09:09.659Z,100.00
2023-05-14T05:11:39.807Z,100.00
2023-05-14T05:14:10.155Z,100.00
2023-05-14T05:16:40.649Z,99.78
2023-05-14T05:19:11.230Z,99.36
2023-05-14T05:21:41.965Z,100.00
2023-05-14T05:24:13.510Z,100.00
2023-05-14T05:26:43.777Z,100.00
2023-05-14T05:29:14.276Z,100.00
2023-05-14T05:31:44.763Z,100.00
2023-05-14T05:34:15.441Z,100.00
2023-05-14T05:36:45.855Z,100.00
2023-05-14T05:39:16.381Z,100.00
2023-05-14T05:41:46.599Z,99.77
2023-05-14T05:44:17.052Z,97.47
2023-05-14T05:46:47.236Z,98.34
2023-05-14T05:49:17.500Z,96.85
2023-05-14T05:51:47.635Z,96.08
2023-05-14T05:54:17.820Z,96.03
2023-05-14T05:56:47.932Z,95.79
2023-05-14T05:59:18.074Z,94.22
2023-05-14T06:01:48.337Z,92.16
2023-05-14T06:04:18.591Z,93.63
2023-05-14T06:06:48.741Z,92.44
2023-05-14T06:09:18.901Z,91.39
2023-05-14T06:11:49.099Z,90.67
2023-05-14T06:14:19.210Z,88.73
2023-05-14T06:16:49.397Z,87.07
2023-05-14T06:19:19.936Z,88.25
2023-05-14T06:21:50.249Z,87.15
2023-05-14T06:24:20.548Z,88.96
2023-05-14T06:26:50.771Z,86.30
2023-05-14T06:29:21.015Z,87.25
2023-05-14T06:31:51.185Z,88.39
2023-05-14T06:34:21.312Z,90.08
2023-05-14T06:36:51.456Z,87.19
2023-05-14T06:39:21.653Z,89.27
2023-05-14T06:41:51.887Z,89.08
2023-05-14T06:44:22.039Z,87.83
2023-05-14T06:46:52.269Z,89.60
2023-05-14T06:49:22.408Z,87.46
2023-05-14T06:51:52.537Z,86.65
2023-05-14T06:54:22.643Z,84.67
2023-05-14T06:56:52.874Z,82.86
2023-05-14T06:59:23.535Z,82.88
2023-05-14T07:01:53.729Z,80.88
2023-05-14T07:04:23.966Z,82.80
2023-05-14T07:06:54.223Z,79.42
2023-05-14T07:09:22.725Z,76.24
2023-05-14T07:11:51.108Z,75.69
2023-05-14T07:14:19.488Z,76.25
2023-05-14T07:16:47.957Z,76.58
2023-05-14T07:19:16.457Z,74.77
2023-05-14T07:21:44.715Z,75.72
2023-05-14T07:24:13.271Z,74.52
2023-05-14T07:26:41.622Z,73.77
2023-05-14T07:29:09.941Z,76.00
2023-05-14T07:31:38.425Z,74.63
2023-05-14T07:34:07.772Z,74.91
2023-05-14T07:36:35.273Z,71.17
2023-05-14T07:39:03.840Z,71.56
2023-05-14T07:41:32.063Z,72.25
2023-05-14T07:44:00.468Z,70.34
2023-05-14T07:46:28.904Z,70.74
2023-05-14T07:48:58.145Z,69.87
2023-05-14T07:51:28.575Z,68.47
2023-05-14T07:53:58.669Z,66.39
2023-05-14T07:56:28.789Z,64.61
2023-05-14T07:58:58.936Z,67.11
2023-05-14T08:01:29.016Z,64.15
2023-05-14T08:03:59.310Z,62.33
2023-05-14T08:06:29.749Z,60.02
2023-05-14T08:09:00.038Z,63.39
2023-05-14T08:11:30.140Z,61.31
2023-05-14T08:14:00.447Z,58.14
2023-05-14T08:16:30.649Z,55.71
2023-05-14T08:19:01.159Z,57.49
2023-05-14T08:25:56.590Z,54.28
2023-05-14T08:28:26.759Z,53.32
2023-05-14T08:30:56.874Z,50.78
2023-05-14T08:37:55.600Z,46.74
2023-05-14T08:40:31.101Z,49.05
2023-05-14T08:43:03.169Z,51.47
2023-05-14T08:45:38.223Z,47.68
2023-05-14T08:48:19.213Z,47.09
2023-05-14T09:08:43.228Z,43.23
2023-05-14T09:11:20.623Z,41.86
2023-05-14T09:13:50.942Z,42.71
2023-05-14T09:16:28.774Z,41.85
2023-05-14T09:18:59.675Z,42.23
2023-05-14T09:21:33.446Z,42.37
2023-05-14T09:24:04.416Z,42.24
2023-05-14T09:26:36.028Z,42.84
2023-05-14T09:29:06.026Z,39.89
2023-05-14T09:36:02.554Z,40.71
2023-05-14T09:38:34.207Z,42.48
2023-05-14T09:41:04.316Z,41.59
2023-05-14T09:43:34.404Z,40.23
2023-05-14T09:46:04.740Z,42.07
2023-05-14T09:48:34.970Z,39.21
2023-05-14T09:51:06.023Z,38.86
2023-05-14T09:53:36.082Z,39.74
2023-05-14T09:56:06.443Z,38.79
2023-05-14T09:58:36.657Z,40.08
2023-05-14T10:01:20.910Z,41.01
2023-05-14T10:04:24.411Z,40.67
2023-05-14T10:06:58.572Z,41.75
2023-05-14T10:09:30.503Z,43.49
2023-05-14T10:12:24.178Z,42.66
2023-05-14T10:15:03.789Z,42.23
2023-05-14T10:17:41.345Z,41.24
2023-05-14T10:20:17.512Z,42.48
2023-05-14T10:22:47.660Z,43.31
2023-05-14T10:25:17.513Z,43.35
2023-05-14T10:27:48.106Z,43.90
2023-05-14T10:30:26.035Z,45.52
2023-05-14T10:33:16.896Z,46.68
2023-05-14T10:36:07.688Z,47.04
2023-05-14T10:38:39.207Z,44.95
2023-05-14T10:41:21.639Z,46.40
2023-05-14T10:43:52.453Z,44.41
2023-05-14T10:46:21.097Z,45.02
2023-05-14T10:48:51.094Z,44.48
2023-05-14T10:51:23.212Z,45.21
2023-05-14T10:53:53.419Z,46.05
2023-05-14T10:56:24.466Z,45.51
2023-05-14T10:59:00.243Z,44.91
2023-05-14T11:01:32.188Z,44.02
2023-05-14T11:04:04.571Z,44.71
2023-05-14T11:06:33.243Z,46.48
2023-05-14T11:09:04.052Z,45.73
2023-05-14T11:11:35.494Z,46.75
2023-05-14T11:14:04.917Z,46.54
2023-05-14T11:16:35.273Z,46.91
2023-05-14T11:19:06.593Z,45.78
2023-05-14T11:21:36.694Z,46.39
2023-05-14T11:24:07.595Z,46.11
2023-05-14T11:26:36.140Z,48.04
2023-05-14T11:29:05.768Z,46.36
2023-05-14T11:31:36.621Z,48.08
2023-05-14T11:34:08.270Z,45.27
2023-05-14T11:36:37.993Z,44.04
2023-05-14T11:39:08.463Z,41.03
2023-05-14T11:41:46.272Z,43.31
2023-05-14T11:44:14.280Z,43.46
2023-05-14T11:46:59.672Z,44.32
2023-05-14T11:49:30.029Z,43.20
2023-05-14T11:52:06.813Z,43.13
2023-05-14T11:54:37.352Z,45.66
2023-05-14T11:57:15.669Z,44.55
2023-05-14T11:59:48.440Z,44.77
2023-05-14T12:02:19.993Z,46.22
2023-05-14T12:04:53.494Z,48.35
2023-05-14T12:07:23.808Z,48.16
2023-05-14T12:09:52.092Z,48.80
2023-05-14T12:12:23.752Z,49.31
2023-05-14T12:14:53.127Z,49.03
2023-05-14T12:17:23.921Z,48.45
2023-05-14T12:19:54.428Z,49.19
2023-05-14T12:22:24.076Z,50.14
2023-05-14T12:25:00.592Z,49.65
2023-05-14T12:27:30.855Z,48.57
2023-05-14T12:32:43.045Z,45.11
2023-05-14T12:35:13.216Z,46.28
2023-05-14T12:37:43.471Z,44.31
2023-05-14T12:40:14.096Z,43.28
2023-05-14T12:42:44.341Z,43.91
2023-05-14T12:45:14.619Z,42.66
2023-05-14T12:47:44.823Z,41.38
2023-05-14T12:50:15.045Z,39.54
2023-05-14T12:52:46.693Z,40.77
2023-05-14T12:55:17.167Z,41.73
2023-05-14T12:57:47.614Z,41.95
2023-05-14T13:00:18.399Z,40.24
2023-05-14T13:02:48.890Z,39.57
2023-05-14T13:05:19.121Z,40.81
2023-05-14T13:07:50.820Z,41.14
2023-05-14T13:10:21.246Z,41.82
2023-05-14T13:12:52.785Z,40.44
2023-05-14T13:15:26.243Z,40.04
2023-05-14T13:17:56.711Z,40.85
2023-05-14T13:20:27.766Z,41.84
2023-05-14T13:22:55.535Z,42.60
2023-05-14T13:25:24.435Z,41.29
2023-05-14T13:27:53.043Z,43.78
2023-05-14T13:30:21.915Z,41.41
2023-05-14T13:32:50.007Z,42.79
2023-05-14T13:35:19.354Z,40.15
2023-05-14T13:37:47.606Z,41.69
2023-05-14T13:40:17.454Z,41.09
2023-05-14T13:42:47.668Z,41.86
2023-05-14T13:45:16.081Z,42.80
2023-05-14T13:47:44.642Z,43.14
2023-05-14T13:50:13.482Z,43.32
2023-05-14T13:52:41.681Z,44.98
2023-05-14T13:55:10.302Z,46.38
2023-05-14T13:57:40.089Z,44.17
2023-05-14T14:00:11.724Z,44.70
2023-05-14T14:02:41.925Z,44.46
2023-05-14T14:05:12.171Z,44.30
2023-05-14T14:07:42.861Z,44.24
2023-05-14T14:10:12.876Z,45.03
2023-05-14T14:12:42.220Z,46.06
2023-05-14T14:15:51.883Z,46.48
2023-05-14T14:18:20.232Z,45.31
2023-05-14T14:20:50.855Z,45.95
2023-05-14T14:23:20.506Z,45.26
2023-05-14T14:25:48.946Z,46.45
2023-05-14T14:28:17.335Z,45.65
2023-05-14T14:30:45.961Z,45.95
2023-05-14T14:33:14.261Z,43.84
2023-05-14T14:35:42.705Z,44.50
2023-05-14T14:38:11.050Z,44.82
2023-05-14T14:40:39.629Z,42.80
2023-05-14T14:43:07.928Z,42.27
2023-05-14T14:45:36.414Z,42.86
2023-05-14T14:48:37.884Z,43.66
2023-05-14T14:51:09.222Z,42.71
2023-05-14T14:53:40.647Z,43.16
2023-05-14T14:56:10.781Z,40.22
2023-05-14T14:58:39.330Z,40.40
2023-05-14T15:01:07.765Z,40.35
2023-05-14T15:03:36.989Z,40.60
2023-05-14T15:06:04.676Z,39.95
2023-05-14T15:08:32.837Z,38.29
2023-05-14T15:11:01.437Z,37.31
2023-05-14T15:13:29.672Z,35.48
2023-05-14T15:15:58.253Z,35.63
2023-05-14T15:18:27.109Z,36.27
2023-05-14T15:20:57.003Z,37.01
2023-05-14T15:23:26.422Z,36.11
2023-05-14T15:25:54.773Z,36.52
2023-05-14T15:28:23.219Z,37.03
2023-05-14T15:30:51.786Z,36.75
2023-05-14T15:33:20.259Z,36.77
2023-05-14T15:35:49.682Z,36.61
2023-05-14T15:38:19.624Z,36.66
2023-05-14T15:40:51.057Z,35.80
2023-05-14T15:43:21.273Z,35.12
2023-05-14T15:45:51.084Z,34.88
2023-05-14T15:48:20.973Z,35.81
2023-05-14T15:50:54.017Z,36.53
2023-05-14T15:53:22.103Z,35.63
2023-05-14T15:55:52.847Z,36.61
2023-05-14T15:58:22.665Z,35.09
2023-05-14T16:00:52.276Z,34.86
2023-05-14T16:03:20.773Z,35.63
2023-05-14T16:05:49.319Z,35.79
2023-05-14T16:08:17.703Z,35.89
2023-05-14T16:10:47.522Z,37.18
2023-05-14T16:34:49.962Z,38.26
2023-05-14T16:37:20.774Z,38.14
2023-05-14T16:39:51.462Z,38.21
2023-05-14T16:42:21.473Z,39.15
2023-05-14T16:44:51.479Z,40.30
2023-05-14T16:47:20.066Z,41.51
2023-05-14T16:49:50.362Z,41.29
2023-05-14T16:52:18.269Z,41.51
2023-05-14T16:54:46.944Z,41.50
2023-05-14T16:57:15.858Z,40.63
2023-05-14T16:59:44.380Z,40.18
2023-05-14T17:02:12.880Z,41.16
2023-05-14T17:04:42.369Z,40.99
2023-05-14T17:07:10.526Z,41.27
2023-05-14T17:09:38.638Z,41.45
2023-05-14T17:12:13.118Z,42.20
2023-05-14T17:14:41.144Z,42.09
2023-05-14T17:17:09.572Z,42.12
2023-05-14T17:19:38.348Z,39.76
2023-05-14T17:22:07.703Z,37.81
2023-05-14T17:24:36.673Z,38.72
2023-05-14T17:27:05.363Z,37.81
2023-05-14T17:29:33.043Z,37.62
2023-05-14T17:32:03.625Z,39.11
2023-05-14T17:34:33.911Z,41.31
2023-05-14T17:37:04.293Z,43.11
2023-05-14T17:39:34.707Z,43.13
2023-05-14T17:42:07.901Z,43.83
2023-05-14T17:44:38.369Z,43.97
2023-05-14T17:47:09.455Z,44.88
2023-05-14T17:49:39.651Z,45.85
2023-05-14T17:52:09.851Z,45.72
2023-05-14T17:54:40.173Z,45.86
2023-05-14T17:57:10.890Z,48.44
2023-05-14T17:59:41.644Z,47.34
2023-05-14T18:02:11.889Z,49.43
2023-05-14T18:04:40.751Z,49.61
2023-05-14T18:07:08.862Z,48.89
2023-05-14T18:09:37.360Z,50.24
2023-05-14T18:12:09.847Z,51.07
2023-05-14T18:14:40.509Z,51.36
2023-05-14T18:17:11.645Z,51.58
2023-05-14T18:19:42.209Z,51.94
2023-05-14T18:22:12.114Z,51.89
2023-05-14T18:24:42.151Z,52.37
2023-05-14T18:27:12.202Z,53.54
2023-05-14T18:29:43.615Z,52.31
2023-05-14T18:32:13.152Z,53.29
2023-05-14T18:34:43.204Z,54.35
2023-05-14T18:37:12.988Z,54.17
2023-05-14T18:39:42.881Z,54.03
2023-05-14T18:42:16.780Z,54.44
2023-05-14T18:44:45.952Z,56.17
2023-05-14T18:47:16.149Z,56.54
2023-05-14T18:49:47.299Z,57.04
2023-05-14T18:52:17.491Z,58.45
2023-05-14T18:54:47.343Z,59.61
2023-05-14T18:57:17.278Z,60.36
2023-05-14T18:59:47.358Z,60.79
2023-05-14T19:02:17.748Z,61.95
2023-05-14T19:04:52.757Z,62.93
2023-05-14T19:07:23.603Z,63.81
2023-05-14T19:09:52.079Z,65.28
2023-05-14T19:12:22.111Z,66.50
2023-05-14T19:14:50.543Z,68.07
2023-05-14T19:17:20.525Z,68.91
2023-05-14T19:19:50.996Z,70.08
2023-05-14T19:22:19.898Z,71.13
2023-05-14T19:24:47.568Z,72.60
2023-05-14T19:27:17.505Z,74.82
2023-05-14T19:29:47.728Z,76.07
2023-05-14T19:32:17.373Z,77.70
2023-05-14T19:34:48.046Z,80.14
2023-05-14T19:37:17.608Z,81.30
2023-05-14T19:39:47.586Z,82.96
2023-05-14T19:42:17.787Z,83.77
2023-05-14T19:44:47.771Z,84.64
2023-05-14T19:47:16.258Z,85.69
2023-05-14T19:49:44.763Z,86.88
2023-05-14T19:52:13.070Z,87.59
2023-05-14T19:54:41.381Z,89.22
2023-05-14T19:57:10.477Z,89.69
2023-05-14T19:59:39.410Z,90.33
2023-05-14T20:02:06.757Z,90.37
2023-05-14T20:04:35.093Z,90.03
2023-05-14T20:07:03.744Z,89.52
2023-05-14T20:09:31.872Z,89.70
2023-05-14T20:12:00.281Z,89.99
2023-05-14T20:14:28.710Z,90.97
2023-05-14T20:16:58.059Z,92.31
2023-05-14T20:19:30.453Z,94.41
2023-05-14T20:22:00.169Z,94.91
2023-05-14T20:24:29.117Z,95.86
2023-05-14T20:26:57.101Z,97.50
2023-05-14T20:29:25.430Z,98.29
2023-05-14T20:31:53.717Z,99.57
2023-05-14T20:34:22.719Z,100.00
2023-05-14T20:36:52.512Z,100.00
2023-05-14T20:39:22.442Z,100.00
2023-05-14T20:41:52.410Z,100.00
2023-05-14T20:44:22.138Z,100.00
2023-05-14T20:46:51.426Z,100.00
2023-05-14T20:49:21.238Z,100.00
2023-05-14T20:51:50.987Z,100.00
2023-05-14T20:54:21.234Z,100.00
2023-05-14T20:56:50.859Z,100.00
2023-05-14T20:59:20.852Z,100.00
2023-05-14T21:01:51.600Z,100.00
2023-05-14T21:04:21.836Z,100.00
2023-05-14T21:06:52.375Z,100.00
2023-05-14T21:09:23.837Z,100.00
2023-05-14T21:11:56.727Z,100.00
2023-05-14T21:14:26.308Z,100.00
2023-05-14T21:16:56.241Z,100.00
2023-05-14T21:19:26.270Z,100.00
2023-05-14T21:21:56.054Z,100.00
2023-05-14T21:24:25.964Z,100.00
2023-05-14T21:26:56.039Z,100.00
2023-05-14T21:29:25.828Z,100.00
2023-05-14T21:31:56.234Z,100.00
2023-05-14T21:34:25.827Z,100.00
2023-05-14T21:36:56.092Z,100.00
2023-05-14T21:39:26.089Z,100.00
2023-05-14T21:41:55.895Z,100.00
2023-05-14T21:44:24.618Z,100.00
2023-05-14T21:46:54.911Z,100.00
2023-05-14T21:49:23.126Z,100.00
2023-05-14T21:51:54.288Z,100.00
2023-05-14T21:54:23.952Z,100.00
2023-05-14T21:56:52.469Z,100.00
2023-05-14T21:59:21.622Z,100.00
2023-05-14T22:02:06.115Z,100.00
2023-05-14T22:04:37.651Z,100.00
2023-05-14T22:07:08.081Z,100.00
2023-05-14T22:09:37.689Z,100.00
2023-05-14T22:12:09.655Z,100.00
2023-05-14T22:14:38.131Z,100.00
2023-05-14T22:17:07.259Z,100.00
2023-05-14T22:19:34.801Z,100.00
2023-05-14T22:22:04.795Z,100.00
2023-05-14T22:24:32.983Z,100.00
2023-05-14T22:27:01.530Z,100.00
2023-05-14T22:29:30.916Z,100.00
2023-05-14T22:31:59.273Z,100.00
2023-05-14T22:34:27.475Z,100.00
2023-05-14T22:36:56.261Z,100.00
2023-05-14T22:39:24.555Z,100.00
2023-05-14T22:41:55.300Z,100.00
2023-05-14T22:44:26.337Z,100.00
2023-05-14T22:46:57.294Z,100.00
2023-05-14T22:49:27.142Z,100.00
2023-05-14T22:51:57.049Z,100.00
2023-05-14T22:54:26.849Z,100.00
2023-05-14T22:56:56.660Z,100.00
2023-05-14T22:59:26.472Z,100.00
2023-05-14T23:01:56.486Z,100.00
2023-05-14T23:04:26.404Z,100.00
2023-05-14T23:06:57.801Z,100.00
2023-05-14T23:09:26.485Z,100.00
2023-05-14T23:11:56.472Z,100.00
2023-05-14T23:14:26.339Z,100.00
2023-05-14T23:16:56.621Z,100.00
2023-05-14T23:19:26.807Z,100.00
2023-05-14T23:21:58.441Z,100.00
2023-05-14T23:24:28.537Z,100.00
2023-05-14T23:26:58.643Z,100.00
2023-05-14T23:29:28.330Z,100.00
2023-05-14T23:31:58.152Z,100.00
2023-05-14T23:34:28.379Z,100.00
2023-05-14T23:36:58.223Z,100.00
2023-05-14T23:39:28.248Z,100.00
2023-05-14T23:41:58.161Z,100.00
2023-05-14T23:44:27.968Z,100.00
2023-05-14T23:46:58.129Z,100.00
2023-05-14T23:49:28.089Z,100.00
2023-05-14T23:51:58.448Z,100.00
2023-05-14T23:54:26.488Z,100.00
2023-05-14T23:56:55.113Z,100.00
2023-05-14T23:59:23.516Z,100.00
